sensor_id;sensor_type;location;lat;lon;timestamp;P1;durP1;ratioP1;P2;durP2;ratioP2
21432;SDS011;18592;49.708;10.900;2023-04-06T00:00:38;7.05;;;5.28;;
21432;SDS011;18592;49.708;10.900;2023-04-06T00:02:39;7.80;;;5.10;;
21432;SDS011;18592;49.708;10.900;2023-04-06T00:04:41;8.00;;;5.83;;
21432;SDS011;18592;49.708;10.900;2023-04-06T00:06:43;8.70;;;5.23;;
21432;SDS011;18592;49.708;10.900;2023-04-06T00:08:44;7.30;;;5.50;;
21432;SDS011;18592;49.708;10.900;2023-04-06T00:10:46;8.13;;;5.13;;
21432;SDS011;18592;49.708;10.900;2023-04-06T00:12:48;7.97;;;5.27;;
21432;SDS011;18592;49.708;10.900;2023-04-06T00:14:51;7.33;;;5.40;;
21432;SDS011;18592;49.708;10.900;2023-04-06T00:16:54;8.50;;;5.33;;
21432;SDS011;18592;49.708;10.900;2023-04-06T00:19:00;6.07;;;4.70;;
21432;SDS011;18592;49.708;10.900;2023-04-06T00:21:02;8.75;;;4.38;;
21432;SDS011;18592;49.708;10.900;2023-04-06T00:23:05;7.10;;;4.73;;
21432;SDS011;18592;49.708;10.900;2023-04-06T00:25:07;6.03;;;4.57;;
21432;SDS011;18592;49.708;10.900;2023-04-06T00:27:09;6.27;;;4.50;;
21432;SDS011;18592;49.708;10.900;2023-04-06T00:29:10;5.78;;;4.40;;
21432;SDS011;18592;49.708;10.900;2023-04-06T00:31:13;8.37;;;4.53;;
21432;SDS011;18592;49.708;10.900;2023-04-06T00:33:14;8.57;;;5.10;;
21432;SDS011;18592;49.708;10.900;2023-04-06T00:35:16;6.93;;;4.93;;
21432;SDS011;18592;49.708;10.900;2023-04-06T00:37:18;7.93;;;4.40;;
21432;SDS011;18592;49.708;10.900;2023-04-06T00:39:22;6.33;;;4.37;;
21432;SDS011;18592;49.708;10.900;2023-04-06T00:41:24;5.90;;;4.50;;
21432;SDS011;18592;49.708;10.900;2023-04-06T00:43:25;6.63;;;4.43;;
21432;SDS011;18592;49.708;10.900;2023-04-06T00:45:27;6.27;;;4.37;;
21432;SDS011;18592;49.708;10.900;2023-04-06T00:47:29;6.10;;;4.23;;
21432;SDS011;18592;49.708;10.900;2023-04-06T00:49:32;6.80;;;4.47;;
21432;SDS011;18592;49.708;10.900;2023-04-06T00:51:34;4.87;;;3.87;;
21432;SDS011;18592;49.708;10.900;2023-04-06T00:53:36;6.03;;;4.50;;
21432;SDS011;18592;49.708;10.900;2023-04-06T00:55:40;5.87;;;4.27;;
21432;SDS011;18592;49.708;10.900;2023-04-06T00:57:42;5.83;;;4.40;;
21432;SDS011;18592;49.708;10.900;2023-04-06T00:59:44;6.20;;;4.43;;
21432;SDS011;18592;49.708;10.900;2023-04-06T01:01:47;5.47;;;4.37;;
21432;SDS011;18592;49.708;10.900;2023-04-06T01:04:03;6.97;;;4.30;;
21432;SDS011;18592;49.708;10.900;2023-04-06T01:06:16;4.63;;;3.50;;
21432;SDS011;18592;49.708;10.900;2023-04-06T01:08:31;7.77;;;4.20;;
21432;SDS011;18592;49.708;10.900;2023-04-06T01:10:46;5.33;;;3.63;;
21432;SDS011;18592;49.708;10.900;2023-04-06T01:12:57;5.43;;;3.83;;
21432;SDS011;18592;49.708;10.900;2023-04-06T01:15:16;5.70;;;3.60;;
21432;SDS011;18592;49.708;10.900;2023-04-06T01:17:23;5.17;;;3.80;;
21432;SDS011;18592;49.708;10.900;2023-04-06T01:19:25;5.63;;;3.93;;
21432;SDS011;18592;49.708;10.900;2023-04-06T01:21:31;4.57;;;3.50;;
21432;SDS011;18592;49.708;10.900;2023-04-06T01:23:56;5.53;;;3.60;;
21432;SDS011;18592;49.708;10.900;2023-04-06T01:26:05;6.60;;;3.87;;
21432;SDS011;18592;49.708;10.900;2023-04-06T01:28:07;5.63;;;3.90;;
21432;SDS011;18592;49.708;10.900;2023-04-06T01:30:34;5.20;;;3.83;;
21432;SDS011;18592;49.708;10.900;2023-04-06T01:32:45;4.70;;;3.50;;
21432;SDS011;18592;49.708;10.900;2023-04-06T01:34:50;5.90;;;3.80;;
21432;SDS011;18592;49.708;10.900;2023-04-06T01:36:52;6.90;;;3.77;;
21432;SDS011;18592;49.708;10.900;2023-04-06T01:38:59;5.50;;;3.77;;
21432;SDS011;18592;49.708;10.900;2023-04-06T01:41:08;5.00;;;3.40;;
21432;SDS011;18592;49.708;10.900;2023-04-06T01:43:20;4.07;;;3.40;;
21432;SDS011;18592;49.708;10.900;2023-04-06T01:45:35;5.63;;;3.73;;
21432;SDS011;18592;49.708;10.900;2023-04-06T01:47:47;5.07;;;3.63;;
21432;SDS011;18592;49.708;10.900;2023-04-06T01:49:48;5.30;;;3.63;;
21432;SDS011;18592;49.708;10.900;2023-04-06T01:51:51;3.83;;;2.97;;
21432;SDS011;18592;49.708;10.900;2023-04-06T01:53:55;4.10;;;3.30;;
21432;SDS011;18592;49.708;10.900;2023-04-06T01:56:10;4.60;;;3.50;;
21432;SDS011;18592;49.708;10.900;2023-04-06T01:58:17;4.53;;;2.97;;
21432;SDS011;18592;49.708;10.900;2023-04-06T02:00:18;5.53;;;3.37;;
21432;SDS011;18592;49.708;10.900;2023-04-06T02:02:26;3.80;;;3.13;;
21432;SDS011;18592;49.708;10.900;2023-04-06T02:04:35;4.97;;;3.47;;
21432;SDS011;18592;49.708;10.900;2023-04-06T02:06:46;4.90;;;3.53;;
21432;SDS011;18592;49.708;10.900;2023-04-06T02:08:50;4.93;;;3.20;;
21432;SDS011;18592;49.708;10.900;2023-04-06T02:10:54;5.37;;;3.20;;
21432;SDS011;18592;49.708;10.900;2023-04-06T02:13:04;3.93;;;2.87;;
21432;SDS011;18592;49.708;10.900;2023-04-06T02:15:07;4.70;;;2.90;;
21432;SDS011;18592;49.708;10.900;2023-04-06T02:17:09;4.70;;;3.00;;
21432;SDS011;18592;49.708;10.900;2023-04-06T02:19:11;3.90;;;2.93;;
21432;SDS011;18592;49.708;10.900;2023-04-06T02:21:17;3.70;;;2.90;;
21432;SDS011;18592;49.708;10.900;2023-04-06T02:23:22;4.13;;;3.10;;
21432;SDS011;18592;49.708;10.900;2023-04-06T02:25:24;5.10;;;2.90;;
21432;SDS011;18592;49.708;10.900;2023-04-06T02:27:27;4.63;;;2.73;;
21432;SDS011;18592;49.708;10.900;2023-04-06T02:29:29;3.03;;;2.60;;
21432;SDS011;18592;49.708;10.900;2023-04-06T02:31:30;4.30;;;3.07;;
21432;SDS011;18592;49.708;10.900;2023-04-06T02:33:36;4.97;;;3.10;;
21432;SDS011;18592;49.708;10.900;2023-04-06T02:35:38;5.00;;;3.03;;
21432;SDS011;18592;49.708;10.900;2023-04-06T02:37:39;5.30;;;3.50;;
21432;SDS011;18592;49.708;10.900;2023-04-06T02:39:41;3.97;;;3.20;;
21432;SDS011;18592;49.708;10.900;2023-04-06T02:41:43;4.50;;;3.20;;
21432;SDS011;18592;49.708;10.900;2023-04-06T02:43:47;4.43;;;3.63;;
21432;SDS011;18592;49.708;10.900;2023-04-06T02:45:58;4.60;;;3.10;;
21432;SDS011;18592;49.708;10.900;2023-04-06T02:48:00;4.53;;;3.50;;
21432;SDS011;18592;49.708;10.900;2023-04-06T02:50:06;3.57;;;3.00;;
21432;SDS011;18592;49.708;10.900;2023-04-06T02:52:14;4.57;;;3.50;;
21432;SDS011;18592;49.708;10.900;2023-04-06T02:54:19;5.07;;;3.50;;
21432;SDS011;18592;49.708;10.900;2023-04-06T02:56:24;5.73;;;3.60;;
21432;SDS011;18592;49.708;10.900;2023-04-06T02:58:26;6.67;;;4.00;;
21432;SDS011;18592;49.708;10.900;2023-04-06T03:00:30;5.57;;;4.00;;
21432;SDS011;18592;49.708;10.900;2023-04-06T03:02:32;7.53;;;4.17;;
21432;SDS011;18592;49.708;10.900;2023-04-06T03:04:43;8.43;;;4.53;;
21432;SDS011;18592;49.708;10.900;2023-04-06T03:06:55;7.97;;;4.20;;
21432;SDS011;18592;49.708;10.900;2023-04-06T03:09:08;7.13;;;4.97;;
21432;SDS011;18592;49.708;10.900;2023-04-06T03:11:12;8.03;;;4.37;;
21432;SDS011;18592;49.708;10.900;2023-04-06T03:13:16;7.10;;;4.00;;
21432;SDS011;18592;49.708;10.900;2023-04-06T03:15:30;8.53;;;4.70;;
21432;SDS011;18592;49.708;10.900;2023-04-06T03:17:44;7.33;;;4.57;;
21432;SDS011;18592;49.708;10.900;2023-04-06T03:19:58;5.60;;;4.23;;
21432;SDS011;18592;49.708;10.900;2023-04-06T03:22:00;7.80;;;4.27;;
21432;SDS011;18592;49.708;10.900;2023-04-06T03:24:04;6.33;;;4.20;;
21432;SDS011;18592;49.708;10.900;2023-04-06T03:26:06;6.50;;;4.10;;
21432;SDS011;18592;49.708;10.900;2023-04-06T03:28:08;5.63;;;3.80;;
21432;SDS011;18592;49.708;10.900;2023-04-06T03:30:17;5.70;;;3.57;;
21432;SDS011;18592;49.708;10.900;2023-04-06T03:32:18;4.67;;;3.20;;
21432;SDS011;18592;49.708;10.900;2023-04-06T03:34:20;4.87;;;3.43;;
21432;SDS011;18592;49.708;10.900;2023-04-06T03:36:22;4.87;;;3.40;;
21432;SDS011;18592;49.708;10.900;2023-04-06T03:38:24;4.50;;;3.67;;
21432;SDS011;18592;49.708;10.900;2023-04-06T03:40:29;7.87;;;3.80;;
21432;SDS011;18592;49.708;10.900;2023-04-06T03:42:31;4.27;;;3.23;;
21432;SDS011;18592;49.708;10.900;2023-04-06T03:44:42;4.30;;;3.33;;
21432;SDS011;18592;49.708;10.900;2023-04-06T03:46:43;6.13;;;4.80;;
21432;SDS011;18592;49.708;10.900;2023-04-06T03:48:47;7.40;;;5.00;;
21432;SDS011;18592;49.708;10.900;2023-04-06T03:50:51;8.10;;;6.07;;
21432;SDS011;18592;49.708;10.900;2023-04-06T03:52:55;11.30;;;7.37;;
21432;SDS011;18592;49.708;10.900;2023-04-06T03:54:56;7.97;;;6.23;;
21432;SDS011;18592;49.708;10.900;2023-04-06T03:56:58;9.13;;;5.83;;
21432;SDS011;18592;49.708;10.900;2023-04-06T03:59:00;6.07;;;5.03;;
21432;SDS011;18592;49.708;10.900;2023-04-06T04:01:03;6.30;;;5.17;;
21432;SDS011;18592;49.708;10.900;2023-04-06T04:03:04;4.93;;;4.43;;
21432;SDS011;18592;49.708;10.900;2023-04-06T04:05:06;7.73;;;5.07;;
21432;SDS011;18592;49.708;10.900;2023-04-06T04:07:10;5.30;;;4.77;;
21432;SDS011;18592;49.708;10.900;2023-04-06T04:09:12;6.33;;;5.13;;
21432;SDS011;18592;49.708;10.900;2023-04-06T04:11:14;6.83;;;5.70;;
21432;SDS011;18592;49.708;10.900;2023-04-06T04:13:19;7.63;;;5.97;;
21432;SDS011;18592;49.708;10.900;2023-04-06T04:15:23;8.40;;;7.23;;
21432;SDS011;18592;49.708;10.900;2023-04-06T04:17:25;13.73;;;11.17;;
21432;SDS011;18592;49.708;10.900;2023-04-06T04:19:27;16.10;;;12.87;;
21432;SDS011;18592;49.708;10.900;2023-04-06T04:21:31;18.73;;;14.43;;
21432;SDS011;18592;49.708;10.900;2023-04-06T04:23:36;20.63;;;14.80;;
21432;SDS011;18592;49.708;10.900;2023-04-06T04:25:38;15.17;;;13.33;;
21432;SDS011;18592;49.708;10.900;2023-04-06T04:27:40;13.50;;;11.27;;
21432;SDS011;18592;49.708;10.900;2023-04-06T04:29:42;11.97;;;8.87;;
21432;SDS011;18592;49.708;10.900;2023-04-06T04:31:49;8.83;;;7.17;;
21432;SDS011;18592;49.708;10.900;2023-04-06T04:33:52;7.93;;;5.87;;
21432;SDS011;18592;49.708;10.900;2023-04-06T04:36:02;5.00;;;4.03;;
21432;SDS011;18592;49.708;10.900;2023-04-06T04:38:13;5.33;;;4.40;;
21432;SDS011;18592;49.708;10.900;2023-04-06T04:40:19;5.33;;;3.97;;
21432;SDS011;18592;49.708;10.900;2023-04-06T04:42:25;4.33;;;3.30;;
21432;SDS011;18592;49.708;10.900;2023-04-06T04:44:30;4.37;;;3.63;;
21432;SDS011;18592;49.708;10.900;2023-04-06T04:46:33;5.13;;;4.00;;
21432;SDS011;18592;49.708;10.900;2023-04-06T04:48:38;7.80;;;5.70;;
21432;SDS011;18592;49.708;10.900;2023-04-06T04:50:41;9.17;;;6.67;;
21432;SDS011;18592;49.708;10.900;2023-04-06T04:52:46;13.57;;;8.23;;
21432;SDS011;18592;49.708;10.900;2023-04-06T04:54:55;12.30;;;8.23;;
21432;SDS011;18592;49.708;10.900;2023-04-06T04:57:00;12.70;;;8.33;;
21432;SDS011;18592;49.708;10.900;2023-04-06T04:59:17;11.13;;;7.83;;
21432;SDS011;18592;49.708;10.900;2023-04-06T05:01:25;12.20;;;7.90;;
21432;SDS011;18592;49.708;10.900;2023-04-06T05:03:27;12.30;;;8.13;;
21432;SDS011;18592;49.708;10.900;2023-04-06T05:05:33;12.17;;;7.60;;
21432;SDS011;18592;49.708;10.900;2023-04-06T05:07:35;13.50;;;8.00;;
21432;SDS011;18592;49.708;10.900;2023-04-06T05:09:38;13.53;;;8.80;;
21432;SDS011;18592;49.708;10.900;2023-04-06T05:11:41;11.93;;;7.53;;
21432;SDS011;18592;49.708;10.900;2023-04-06T05:13:42;12.13;;;8.40;;
21432;SDS011;18592;49.708;10.900;2023-04-06T05:15:50;9.70;;;7.03;;
21432;SDS011;18592;49.708;10.900;2023-04-06T05:17:57;12.37;;;7.30;;
21432;SDS011;18592;49.708;10.900;2023-04-06T05:20:06;11.63;;;7.37;;
21432;SDS011;18592;49.708;10.900;2023-04-06T05:22:18;13.23;;;7.50;;
21432;SDS011;18592;49.708;10.900;2023-04-06T05:24:25;12.60;;;6.40;;
21432;SDS011;18592;49.708;10.900;2023-04-06T05:26:27;10.50;;;6.73;;
21432;SDS011;18592;49.708;10.900;2023-04-06T05:28:35;8.87;;;6.47;;
21432;SDS011;18592;49.708;10.900;2023-04-06T05:30:38;7.77;;;5.73;;
21432;SDS011;18592;49.708;10.900;2023-04-06T05:32:42;8.77;;;6.37;;
21432;SDS011;18592;49.708;10.900;2023-04-06T05:34:45;8.57;;;5.87;;
21432;SDS011;18592;49.708;10.900;2023-04-06T05:36:50;8.97;;;5.80;;
21432;SDS011;18592;49.708;10.900;2023-04-06T05:38:55;8.17;;;6.17;;
21432;SDS011;18592;49.708;10.900;2023-04-06T05:41:08;8.67;;;5.90;;
21432;SDS011;18592;49.708;10.900;2023-04-06T05:43:14;10.13;;;6.40;;
21432;SDS011;18592;49.708;10.900;2023-04-06T05:45:19;8.30;;;6.40;;
21432;SDS011;18592;49.708;10.900;2023-04-06T05:47:27;8.13;;;5.63;;
21432;SDS011;18592;49.708;10.900;2023-04-06T05:49:37;10.17;;;6.20;;
21432;SDS011;18592;49.708;10.900;2023-04-06T05:51:44;9.10;;;6.23;;
21432;SDS011;18592;49.708;10.900;2023-04-06T05:53:46;8.00;;;5.30;;
21432;SDS011;18592;49.708;10.900;2023-04-06T05:55:50;8.80;;;5.77;;
21432;SDS011;18592;49.708;10.900;2023-04-06T05:57:54;9.90;;;5.97;;
21432;SDS011;18592;49.708;10.900;2023-04-06T05:59:55;11.80;;;7.20;;
21432;SDS011;18592;49.708;10.900;2023-04-06T06:02:12;16.20;;;8.83;;
21432;SDS011;18592;49.708;10.900;2023-04-06T06:04:19;16.57;;;9.40;;
21432;SDS011;18592;49.708;10.900;2023-04-06T06:06:24;19.37;;;10.23;;
21432;SDS011;18592;49.708;10.900;2023-04-06T06:08:49;17.47;;;9.50;;
21432;SDS011;18592;49.708;10.900;2023-04-06T06:10:52;14.73;;;9.07;;
21432;SDS011;18592;49.708;10.900;2023-04-06T06:12:56;12.80;;;8.43;;
21432;SDS011;18592;49.708;10.900;2023-04-06T06:15:03;14.47;;;8.27;;
21432;SDS011;18592;49.708;10.900;2023-04-06T06:17:12;12.10;;;7.90;;
21432;SDS011;18592;49.708;10.900;2023-04-06T06:19:19;10.13;;;7.33;;
21432;SDS011;18592;49.708;10.900;2023-04-06T06:21:21;11.33;;;7.53;;
21432;SDS011;18592;49.708;10.900;2023-04-06T06:23:26;12.73;;;7.07;;
21432;SDS011;18592;49.708;10.900;2023-04-06T06:25:27;8.97;;;6.63;;
21432;SDS011;18592;49.708;10.900;2023-04-06T06:27:31;9.73;;;6.50;;
21432;SDS011;18592;49.708;10.900;2023-04-06T06:29:37;9.37;;;5.40;;
21432;SDS011;18592;49.708;10.900;2023-04-06T06:31:38;9.97;;;6.00;;
21432;SDS011;18592;49.708;10.900;2023-04-06T06:33:42;7.43;;;5.10;;
21432;SDS011;18592;49.708;10.900;2023-04-06T06:35:43;7.80;;;5.37;;
21432;SDS011;18592;49.708;10.900;2023-04-06T06:37:45;6.73;;;5.30;;
21432;SDS011;18592;49.708;10.900;2023-04-06T06:39:51;8.00;;;5.13;;
21432;SDS011;18592;49.708;10.900;2023-04-06T06:41:54;7.37;;;5.07;;
21432;SDS011;18592;49.708;10.900;2023-04-06T06:44:14;6.47;;;4.97;;
21432;SDS011;18592;49.708;10.900;2023-04-06T06:46:20;9.13;;;5.30;;
21432;SDS011;18592;49.708;10.900;2023-04-06T06:48:22;8.23;;;5.30;;
21432;SDS011;18592;49.708;10.900;2023-04-06T06:50:27;7.20;;;4.90;;
21432;SDS011;18592;49.708;10.900;2023-04-06T06:52:29;7.75;;;5.13;;
21432;SDS011;18592;49.708;10.900;2023-04-06T06:54:31;6.57;;;4.90;;
21432;SDS011;18592;49.708;10.900;2023-04-06T06:56:35;8.07;;;4.80;;
21432;SDS011;18592;49.708;10.900;2023-04-06T06:58:42;7.55;;;5.13;;
21432;SDS011;18592;49.708;10.900;2023-04-06T07:00:43;8.48;;;5.38;;
21432;SDS011;18592;49.708;10.900;2023-04-06T07:02:46;6.78;;;4.35;;
21432;SDS011;18592;49.708;10.900;2023-04-06T07:04:48;8.95;;;4.40;;
21432;SDS011;18592;49.708;10.900;2023-04-06T07:06:51;8.30;;;4.50;;
21432;SDS011;18592;49.708;10.900;2023-04-06T07:08:53;7.10;;;4.57;;
21432;SDS011;18592;49.708;10.900;2023-04-06T07:10:56;6.50;;;4.65;;
21432;SDS011;18592;49.708;10.900;2023-04-06T07:12:57;9.02;;;5.70;;
21432;SDS011;18592;49.708;10.900;2023-04-06T07:15:00;9.00;;;5.75;;
21432;SDS011;18592;49.708;10.900;2023-04-06T07:17:05;7.63;;;5.07;;
21432;SDS011;18592;49.708;10.900;2023-04-06T07:19:06;7.72;;;4.80;;
21432;SDS011;18592;49.708;10.900;2023-04-06T07:21:09;8.02;;;4.47;;
21432;SDS011;18592;49.708;10.900;2023-04-06T07:23:14;7.35;;;4.68;;
21432;SDS011;18592;49.708;10.900;2023-04-06T07:25:25;6.15;;;4.28;;
21432;SDS011;18592;49.708;10.900;2023-04-06T07:27:26;6.10;;;4.18;;
21432;SDS011;18592;49.708;10.900;2023-04-06T07:29:31;6.20;;;4.80;;
21432;SDS011;18592;49.708;10.900;2023-04-06T07:31:33;6.70;;;4.30;;
21432;SDS011;18592;49.708;10.900;2023-04-06T07:33:37;6.72;;;3.70;;
21432;SDS011;18592;49.708;10.900;2023-04-06T07:35:40;6.10;;;4.15;;
21432;SDS011;18592;49.708;10.900;2023-04-06T07:37:42;6.65;;;4.03;;
21432;SDS011;18592;49.708;10.900;2023-04-06T07:39:43;6.57;;;4.20;;
21432;SDS011;18592;49.708;10.900;2023-04-06T07:41:46;5.85;;;3.70;;
21432;SDS011;18592;49.708;10.900;2023-04-06T07:43:48;4.03;;;3.35;;
21432;SDS011;18592;49.708;10.900;2023-04-06T07:45:50;5.10;;;3.80;;
21432;SDS011;18592;49.708;10.900;2023-04-06T07:47:55;4.63;;;3.55;;
21432;SDS011;18592;49.708;10.900;2023-04-06T07:49:59;5.35;;;3.35;;
21432;SDS011;18592;49.708;10.900;2023-04-06T07:52:01;5.38;;;3.60;;
21432;SDS011;18592;49.708;10.900;2023-04-06T07:54:06;4.30;;;3.28;;
21432;SDS011;18592;49.708;10.900;2023-04-06T07:56:08;3.97;;;3.33;;
21432;SDS011;18592;49.708;10.900;2023-04-06T07:58:10;5.70;;;3.60;;
21432;SDS011;18592;49.708;10.900;2023-04-06T08:00:12;6.55;;;3.42;;
21432;SDS011;18592;49.708;10.900;2023-04-06T08:02:14;4.22;;;3.08;;
21432;SDS011;18592;49.708;10.900;2023-04-06T08:04:16;4.90;;;3.42;;
21432;SDS011;18592;49.708;10.900;2023-04-06T08:06:17;4.57;;;3.08;;
21432;SDS011;18592;49.708;10.900;2023-04-06T08:08:19;4.97;;;3.20;;
21432;SDS011;18592;49.708;10.900;2023-04-06T08:10:23;5.53;;;3.65;;
21432;SDS011;18592;49.708;10.900;2023-04-06T08:12:25;4.10;;;3.10;;
21432;SDS011;18592;49.708;10.900;2023-04-06T08:14:26;4.68;;;3.47;;
21432;SDS011;18592;49.708;10.900;2023-04-06T08:16:31;5.28;;;3.50;;
21432;SDS011;18592;49.708;10.900;2023-04-06T08:18:32;4.07;;;3.40;;
21432;SDS011;18592;49.708;10.900;2023-04-06T08:20:34;3.85;;;3.42;;
21432;SDS011;18592;49.708;10.900;2023-04-06T08:22:36;4.15;;;3.40;;
21432;SDS011;18592;49.708;10.900;2023-04-06T08:24:40;4.35;;;3.58;;
21432;SDS011;18592;49.708;10.900;2023-04-06T08:26:41;4.55;;;3.45;;
21432;SDS011;18592;49.708;10.900;2023-04-06T08:28:43;5.15;;;3.38;;
21432;SDS011;18592;49.708;10.900;2023-04-06T08:30:47;5.22;;;3.45;;
21432;SDS011;18592;49.708;10.900;2023-04-06T08:32:48;5.28;;;3.90;;
21432;SDS011;18592;49.708;10.900;2023-04-06T08:34:54;4.53;;;3.67;;
21432;SDS011;18592;49.708;10.900;2023-04-06T08:36:56;4.97;;;3.70;;
21432;SDS011;18592;49.708;10.900;2023-04-06T08:39:00;5.18;;;3.90;;
21432;SDS011;18592;49.708;10.900;2023-04-06T08:41:12;4.75;;;3.63;;
21432;SDS011;18592;49.708;10.900;2023-04-06T08:43:14;4.65;;;3.38;;
21432;SDS011;18592;49.708;10.900;2023-04-06T08:45:19;4.85;;;3.60;;
21432;SDS011;18592;49.708;10.900;2023-04-06T08:47:22;5.18;;;3.60;;
21432;SDS011;18592;49.708;10.900;2023-04-06T08:49:25;4.60;;;3.35;;
21432;SDS011;18592;49.708;10.900;2023-04-06T08:51:27;5.80;;;3.88;;
21432;SDS011;18592;49.708;10.900;2023-04-06T08:53:33;4.65;;;3.70;;
21432;SDS011;18592;49.708;10.900;2023-04-06T08:55:35;4.88;;;3.72;;
21432;SDS011;18592;49.708;10.900;2023-04-06T08:57:40;7.20;;;4.20;;
21432;SDS011;18592;49.708;10.900;2023-04-06T08:59:44;4.22;;;3.55;;
21432;SDS011;18592;49.708;10.900;2023-04-06T09:01:46;5.43;;;3.85;;
21432;SDS011;18592;49.708;10.900;2023-04-06T09:03:49;5.40;;;4.10;;
21432;SDS011;18592;49.708;10.900;2023-04-06T09:05:52;5.32;;;3.85;;
21432;SDS011;18592;49.708;10.900;2023-04-06T09:08:04;7.45;;;4.53;;
21432;SDS011;18592;49.708;10.900;2023-04-06T09:10:06;3.97;;;3.55;;
21432;SDS011;18592;49.708;10.900;2023-04-06T09:12:08;5.38;;;3.90;;
21432;SDS011;18592;49.708;10.900;2023-04-06T09:14:13;5.53;;;4.50;;
21432;SDS011;18592;49.708;10.900;2023-04-06T09:16:19;4.18;;;3.38;;
21432;SDS011;18592;49.708;10.900;2023-04-06T09:18:28;4.38;;;3.70;;
21432;SDS011;18592;49.708;10.900;2023-04-06T09:20:31;6.03;;;3.92;;
21432;SDS011;18592;49.708;10.900;2023-04-06T09:22:36;5.45;;;4.13;;
21432;SDS011;18592;49.708;10.900;2023-04-06T09:24:45;4.82;;;3.85;;
21432;SDS011;18592;49.708;10.900;2023-04-06T09:26:49;4.60;;;3.72;;
21432;SDS011;18592;49.708;10.900;2023-04-06T09:28:54;4.05;;;3.63;;
21432;SDS011;18592;49.708;10.900;2023-04-06T09:30:58;5.15;;;3.70;;
21432;SDS011;18592;49.708;10.900;2023-04-06T09:32:59;5.05;;;4.00;;
21432;SDS011;18592;49.708;10.900;2023-04-06T09:35:05;4.20;;;3.63;;
21432;SDS011;18592;49.708;10.900;2023-04-06T09:37:19;4.82;;;3.85;;
21432;SDS011;18592;49.708;10.900;2023-04-06T09:39:21;4.53;;;4.05;;
21432;SDS011;18592;49.708;10.900;2023-04-06T09:41:30;4.55;;;4.05;;
21432;SDS011;18592;49.708;10.900;2023-04-06T09:43:34;5.93;;;3.90;;
21432;SDS011;18592;49.708;10.900;2023-04-06T09:45:35;5.85;;;4.20;;
21432;SDS011;18592;49.708;10.900;2023-04-06T09:47:37;4.40;;;3.90;;
21432;SDS011;18592;49.708;10.900;2023-04-06T09:49:44;5.75;;;3.90;;
21432;SDS011;18592;49.708;10.900;2023-04-06T09:51:52;4.45;;;3.67;;
21432;SDS011;18592;49.708;10.900;2023-04-06T09:53:57;5.15;;;3.97;;
21432;SDS011;18592;49.708;10.900;2023-04-06T09:56:05;5.03;;;4.03;;
21432;SDS011;18592;49.708;10.900;2023-04-06T09:58:18;5.20;;;3.92;;
21432;SDS011;18592;49.708;10.900;2023-04-06T10:00:27;3.88;;;3.42;;
21432;SDS011;18592;49.708;10.900;2023-04-06T10:02:39;5.38;;;3.80;;
21432;SDS011;18592;49.708;10.900;2023-04-06T10:04:59;5.97;;;4.43;;
21432;SDS011;18592;49.708;10.900;2023-04-06T10:07:09;4.25;;;3.80;;
21432;SDS011;18592;49.708;10.900;2023-04-06T10:09:13;3.83;;;3.40;;
21432;SDS011;18592;49.708;10.900;2023-04-06T10:11:15;4.63;;;3.83;;
21432;SDS011;18592;49.708;10.900;2023-04-06T10:13:17;4.47;;;3.63;;
21432;SDS011;18592;49.708;10.900;2023-04-06T10:15:20;3.88;;;3.25;;
21432;SDS011;18592;49.708;10.900;2023-04-06T10:17:23;4.40;;;3.20;;
21432;SDS011;18592;49.708;10.900;2023-04-06T10:19:28;3.88;;;3.53;;
21432;SDS011;18592;49.708;10.900;2023-04-06T10:21:39;6.45;;;3.92;;
21432;SDS011;18592;49.708;10.900;2023-04-06T10:23:49;4.50;;;3.70;;
21432;SDS011;18592;49.708;10.900;2023-04-06T10:25:54;5.60;;;3.72;;
21432;SDS011;18592;49.708;10.900;2023-04-06T10:28:07;3.78;;;3.40;;
21432;SDS011;18592;49.708;10.900;2023-04-06T10:30:10;4.20;;;3.80;;
21432;SDS011;18592;49.708;10.900;2023-04-06T10:32:14;5.45;;;3.78;;
21432;SDS011;18592;49.708;10.900;2023-04-06T10:34:15;4.20;;;3.60;;
21432;SDS011;18592;49.708;10.900;2023-04-06T10:36:27;4.78;;;3.88;;
21432;SDS011;18592;49.708;10.900;2023-04-06T10:38:39;4.28;;;3.88;;
21432;SDS011;18592;49.708;10.900;2023-04-06T10:40:42;4.80;;;4.28;;
21432;SDS011;18592;49.708;10.900;2023-04-06T10:42:44;4.65;;;3.72;;
21432;SDS011;18592;49.708;10.900;2023-04-06T10:44:45;5.72;;;3.50;;
21432;SDS011;18592;49.708;10.900;2023-04-06T10:46:59;5.15;;;3.88;;
21432;SDS011;18592;49.708;10.900;2023-04-06T10:49:10;4.00;;;3.28;;
21432;SDS011;18592;49.708;10.900;2023-04-06T10:51:16;5.65;;;3.55;;
21432;SDS011;18592;49.708;10.900;2023-04-06T10:53:22;4.65;;;3.75;;
21432;SDS011;18592;49.708;10.900;2023-04-06T10:55:27;4.55;;;3.53;;
21432;SDS011;18592;49.708;10.900;2023-04-06T10:57:30;3.67;;;3.35;;
21432;SDS011;18592;49.708;10.900;2023-04-06T10:59:34;4.15;;;3.42;;
21432;SDS011;18592;49.708;10.900;2023-04-06T11:01:36;3.38;;;3.08;;
21432;SDS011;18592;49.708;10.900;2023-04-06T11:03:47;3.42;;;3.05;;
21432;SDS011;18592;49.708;10.900;2023-04-06T11:05:50;3.13;;;2.83;;
21432;SDS011;18592;49.708;10.900;2023-04-06T11:07:52;3.58;;;2.78;;
21432;SDS011;18592;49.708;10.900;2023-04-06T11:09:54;3.00;;;2.70;;
21432;SDS011;18592;49.708;10.900;2023-04-06T11:12:26;2.90;;;2.60;;
21432;SDS011;18592;49.708;10.900;2023-04-06T11:14:31;3.60;;;2.60;;
21432;SDS011;18592;49.708;10.900;2023-04-06T11:16:34;3.63;;;2.95;;
21432;SDS011;18592;49.708;10.900;2023-04-06T11:18:37;3.58;;;2.85;;
21432;SDS011;18592;49.708;10.900;2023-04-06T11:20:39;4.15;;;3.20;;
21432;SDS011;18592;49.708;10.900;2023-04-06T11:22:48;3.10;;;2.80;;
21432;SDS011;18592;49.708;10.900;2023-04-06T11:24:53;3.35;;;2.83;;
21432;SDS011;18592;49.708;10.900;2023-04-06T11:26:55;3.95;;;3.13;;
21432;SDS011;18592;49.708;10.900;2023-04-06T11:28:58;3.03;;;2.72;;
21432;SDS011;18592;49.708;10.900;2023-04-06T11:31:00;4.32;;;2.85;;
21432;SDS011;18592;49.708;10.900;2023-04-06T11:33:02;3.53;;;3.22;;
21432;SDS011;18592;49.708;10.900;2023-04-06T11:35:04;2.95;;;2.65;;
21432;SDS011;18592;49.708;10.900;2023-04-06T11:37:12;3.13;;;2.83;;
21432;SDS011;18592;49.708;10.900;2023-04-06T11:39:20;2.95;;;2.67;;
21432;SDS011;18592;49.708;10.900;2023-04-06T11:41:24;2.97;;;2.65;;
21432;SDS011;18592;49.708;10.900;2023-04-06T11:43:32;3.55;;;2.85;;
21432;SDS011;18592;49.708;10.900;2023-04-06T11:45:41;3.20;;;2.90;;
21432;SDS011;18592;49.708;10.900;2023-04-06T11:47:44;4.72;;;3.25;;
21432;SDS011;18592;49.708;10.900;2023-04-06T11:49:46;3.70;;;2.88;;
21432;SDS011;18592;49.708;10.900;2023-04-06T11:51:48;3.35;;;3.05;;
21432;SDS011;18592;49.708;10.900;2023-04-06T11:53:50;2.85;;;2.53;;
21432;SDS011;18592;49.708;10.900;2023-04-06T11:55:52;3.10;;;2.80;;
21432;SDS011;18592;49.708;10.900;2023-04-06T11:57:53;4.03;;;3.03;;
21432;SDS011;18592;49.708;10.900;2023-04-06T11:59:55;2.67;;;2.47;;
21432;SDS011;18592;49.708;10.900;2023-04-06T12:01:57;2.83;;;2.50;;
21432;SDS011;18592;49.708;10.900;2023-04-06T12:04:02;3.08;;;2.80;;
21432;SDS011;18592;49.708;10.900;2023-04-06T12:06:04;4.82;;;2.53;;
21432;SDS011;18592;49.708;10.900;2023-04-06T12:08:06;3.85;;;2.92;;
21432;SDS011;18592;49.708;10.900;2023-04-06T12:10:07;3.40;;;3.00;;
21432;SDS011;18592;49.708;10.900;2023-04-06T12:12:09;3.75;;;2.90;;
21432;SDS011;18592;49.708;10.900;2023-04-06T12:14:11;4.10;;;3.05;;
21432;SDS011;18592;49.708;10.900;2023-04-06T12:16:13;3.28;;;2.97;;
21432;SDS011;18592;49.708;10.900;2023-04-06T12:18:15;4.22;;;2.83;;
21432;SDS011;18592;49.708;10.900;2023-04-06T12:20:17;4.07;;;3.00;;